createdAt,value
2022-12-08T00:01:32.556Z,100603.25
2022-12-08T00:04:02.288Z,100601.28
2022-12-08T00:06:53.354Z,100611.47
2022-12-08T00:09:41.069Z,100603.22
2022-12-08T00:12:16.666Z,100606.56
2022-12-08T00:14:47.574Z,100612.16
2022-12-08T00:17:16.525Z,100608.25
2022-12-08T00:19:45.040Z,100612.47
2022-12-08T00:22:14.728Z,100616.13
2022-12-08T00:24:45.563Z,100607.16
2022-12-08T00:27:15.747Z,100618.25
2022-12-08T00:29:45.266Z,100622.00
2022-12-08T00:32:13.767Z,100621.88
2022-12-08T00:34:41.375Z,100622.94
2022-12-08T00:37:08.953Z,100632.22
2022-12-08T00:39:36.926Z,100628.25
2022-12-08T00:42:13.510Z,100631.25
2022-12-08T00:44:43.018Z,100622.66
2022-12-08T00:47:11.473Z,100628.66
2022-12-08T00:49:39.132Z,100629.12
2022-12-08T00:52:07.177Z,100631.50
2022-12-08T00:54:34.948Z,100630.09
2022-12-08T00:57:02.799Z,100631.06
2022-12-08T00:59:30.655Z,100630.19
2022-12-08T01:01:58.347Z,100629.75
2022-12-08T01:04:26.231Z,100639.03
2022-12-08T01:06:54.011Z,100641.50
2022-12-08T01:09:21.713Z,100637.16
2022-12-08T01:11:49.272Z,100635.84
2022-12-08T01:14:17.060Z,100635.06
2022-12-08T01:16:45.024Z,100640.66
2022-12-08T01:19:14.464Z,100630.91
2022-12-08T01:21:43.375Z,100637.00
2022-12-08T01:24:16.420Z,100633.91
2022-12-08T01:26:45.290Z,100631.59
2022-12-08T01:29:13.291Z,100636.75
2022-12-08T01:31:40.968Z,100635.84
2022-12-08T01:34:08.829Z,100633.66
2022-12-08T01:36:37.303Z,100631.53
2022-12-08T01:39:08.034Z,100636.47
2022-12-08T01:41:38.010Z,100627.56
2022-12-08T01:44:08.492Z,100629.00
2022-12-08T01:46:38.644Z,100627.94
2022-12-08T01:49:21.031Z,100626.81
2022-12-08T01:52:18.424Z,100625.00
2022-12-08T01:54:53.713Z,100619.06
2022-12-08T01:57:30.869Z,100619.69
2022-12-08T02:00:14.287Z,100616.59
2022-12-08T02:02:47.310Z,100618.84
2022-12-08T02:05:16.319Z,100624.78
2022-12-08T02:07:44.879Z,100634.31
2022-12-08T02:10:16.622Z,100630.75
2022-12-08T02:12:44.917Z,100630.88
2022-12-08T02:15:12.956Z,100626.00
2022-12-08T02:18:00.075Z,100628.78
2022-12-08T02:20:38.023Z,100636.09
2022-12-08T02:23:05.569Z,100623.63
2022-12-08T02:25:47.577Z,100627.94
2022-12-08T02:28:47.401Z,100630.13
2022-12-08T02:31:35.395Z,100627.53
2022-12-08T02:34:09.130Z,100626.16
2022-12-08T02:37:01.324Z,100615.12
2022-12-08T02:39:35.975Z,100615.50
2022-12-08T02:42:35.291Z,100615.94
2022-12-08T02:45:11.661Z,100619.91
2022-12-08T02:47:40.819Z,100622.63
2022-12-08T02:50:09.856Z,100617.31
2022-12-08T02:52:43.382Z,100621.09
2022-12-08T02:55:19.100Z,100618.91
2022-12-08T02:58:20.245Z,100611.56
2022-12-08T03:01:06.272Z,100618.31
2022-12-08T03:03:45.862Z,100631.34
2022-12-08T03:06:44.101Z,100626.16
2022-12-08T03:09:29.709Z,100623.03
2022-12-08T03:12:18.436Z,100626.81
2022-12-08T03:14:50.233Z,100621.81
2022-12-08T03:17:21.770Z,100620.47
2022-12-08T03:19:50.107Z,100616.94
2022-12-08T03:22:22.700Z,100620.47
2022-12-08T03:24:51.344Z,100629.00
2022-12-08T03:27:29.569Z,100629.56
2022-12-08T03:29:59.145Z,100622.44
2022-12-08T03:32:40.190Z,100628.88
2022-12-08T03:35:15.921Z,100623.28
2022-12-08T03:37:44.330Z,100630.88
2022-12-08T03:40:15.585Z,100628.72
2022-12-08T03:42:43.214Z,100630.94
2022-12-08T03:45:11.752Z,100625.56
2022-12-08T03:47:39.350Z,100628.16
2022-12-08T03:50:07.592Z,100631.09
2022-12-08T03:52:35.795Z,100628.97
2022-12-08T03:55:03.660Z,100619.28
2022-12-08T03:57:31.280Z,100621.06
2022-12-08T03:59:59.198Z,100616.91
2022-12-08T04:02:26.759Z,100623.66
2022-12-08T04:04:54.602Z,100620.69
2022-12-08T04:07:22.176Z,100621.28
2022-12-08T04:09:49.803Z,100615.94
2022-12-08T04:12:17.705Z,100621.06
2022-12-08T04:14:45.249Z,100621.69
2022-12-08T04:17:12.892Z,100625.19
2022-12-08T04:19:41.044Z,100622.22
2022-12-08T04:22:08.875Z,100630.16
2022-12-08T04:24:36.375Z,100631.75
2022-12-08T04:27:04.257Z,100636.28
2022-12-08T04:29:31.766Z,100645.88
2022-12-08T04:31:59.375Z,100640.03
2022-12-08T04:34:27.250Z,100640.47
2022-12-08T04:36:54.781Z,100636.91
2022-12-08T04:39:22.417Z,100638.09
2022-12-08T04:41:50.372Z,100637.66
2022-12-08T04:44:17.894Z,100635.47
2022-12-08T04:46:45.441Z,100626.03
2022-12-08T04:49:13.315Z,100636.47
2022-12-08T04:51:40.977Z,100639.28
2022-12-08T04:54:08.593Z,100633.53
2022-12-08T04:56:36.753Z,100636.84
2022-12-08T04:59:04.466Z,100644.94
2022-12-08T05:01:32.244Z,100639.91
2022-12-08T05:04:00.252Z,100641.94
2022-12-08T05:06:27.793Z,100638.38
2022-12-08T05:08:56.279Z,100632.41
2022-12-08T05:11:24.132Z,100629.72
2022-12-08T05:13:51.826Z,100629.53
2022-12-08T05:16:19.357Z,100624.94
2022-12-08T05:18:47.364Z,100622.06
2022-12-08T05:21:14.891Z,100631.97
2022-12-08T05:23:42.359Z,100616.13
2022-12-08T05:26:10.205Z,100621.47
2022-12-08T05:28:42.270Z,100621.09
2022-12-08T05:31:15.908Z,100621.06
2022-12-08T05:33:44.557Z,100619.66
2022-12-08T05:36:14.524Z,100628.09
2022-12-08T05:38:42.967Z,100617.50
2022-12-08T05:41:14.597Z,100614.13
2022-12-08T05:43:42.665Z,100628.78
2022-12-08T05:46:11.166Z,100619.47
2022-12-08T05:48:39.375Z,100630.37
2022-12-08T05:51:17.106Z,100621.47
2022-12-08T05:53:44.725Z,100629.19
2022-12-08T05:56:12.587Z,100627.37
2022-12-08T05:58:40.337Z,100632.53
2022-12-08T06:01:08.192Z,100635.69
2022-12-08T06:03:36.269Z,100627.75
2022-12-08T06:06:04.323Z,100630.88
2022-12-08T06:08:31.914Z,100629.31
2022-12-08T06:10:59.912Z,100636.53
2022-12-08T06:13:27.410Z,100634.47
2022-12-08T06:15:55.036Z,100632.47
2022-12-08T06:18:22.902Z,100630.94
2022-12-08T06:20:50.520Z,100628.53
2022-12-08T06:23:18.078Z,100632.09
2022-12-08T06:25:45.914Z,100639.25
2022-12-08T06:28:13.485Z,100641.78
2022-12-08T06:30:41.010Z,100643.78
2022-12-08T06:33:08.881Z,100634.47
2022-12-08T06:35:37.144Z,100626.63
2022-12-08T06:38:04.760Z,100626.63
2022-12-08T06:40:32.657Z,100624.59
2022-12-08T06:43:00.210Z,100625.03
2022-12-08T06:45:27.777Z,100623.03
2022-12-08T06:47:55.649Z,100624.44
2022-12-08T06:50:23.211Z,100624.81
2022-12-08T06:53:02.821Z,100622.25
2022-12-08T06:58:21.146Z,100630.97
2022-12-08T07:00:49.427Z,100633.94
2022-12-08T07:03:17.058Z,100634.53
2022-12-08T07:05:44.841Z,100626.81
2022-12-08T07:08:12.877Z,100617.91
2022-12-08T07:10:40.650Z,100619.91
2022-12-08T07:13:08.307Z,100624.25
2022-12-08T07:15:36.154Z,100623.66
2022-12-08T07:18:03.991Z,100625.22
2022-12-08T07:20:32.092Z,100637.66
2022-12-08T07:23:00.118Z,100637.69
2022-12-08T07:25:27.738Z,100639.69
2022-12-08T07:27:55.399Z,100627.59
2022-12-08T07:30:23.464Z,100624.84
2022-12-08T07:32:50.986Z,100632.56
2022-12-08T07:35:18.565Z,100634.91
2022-12-08T07:37:46.675Z,100633.56
2022-12-08T07:40:15.071Z,100631.19
2022-12-08T07:42:42.872Z,100630.75
2022-12-08T07:45:10.820Z,100632.53
2022-12-08T07:47:38.421Z,100633.34
2022-12-08T07:50:07.109Z,100633.72
2022-12-08T07:52:35.822Z,100639.25
2022-12-08T07:55:03.602Z,100634.50
2022-12-08T07:57:31.208Z,100634.53
2022-12-08T07:59:59.143Z,100635.50
2022-12-08T08:02:26.924Z,100638.09
2022-12-08T08:04:54.908Z,100634.50
2022-12-08T08:07:22.452Z,100638.47
2022-12-08T08:09:50.097Z,100638.28
2022-12-08T08:12:33.637Z,100634.69
2022-12-08T08:15:01.841Z,100625.41
2022-12-08T08:17:30.411Z,100630.13
2022-12-08T08:19:58.156Z,100626.56
2022-12-08T08:22:26.351Z,100625.56
2022-12-08T08:24:54.638Z,100624.56
2022-12-08T08:27:22.834Z,100617.44
2022-12-08T08:29:50.728Z,100621.75
2022-12-08T08:32:19.590Z,100615.59
2022-12-08T08:34:47.195Z,100613.97
2022-12-08T08:37:14.967Z,100615.38
2022-12-08T08:39:43.178Z,100613.59
2022-12-08T08:42:10.787Z,100621.69
2022-12-08T08:44:39.066Z,100620.47
2022-12-08T08:47:07.291Z,100615.56
2022-12-08T08:49:35.270Z,100618.09
2022-12-08T08:52:04.934Z,100616.91
2022-12-08T08:54:33.505Z,100614.09
2022-12-08T08:57:02.134Z,100616.06
2022-12-08T08:59:29.922Z,100615.25
2022-12-08T09:01:57.874Z,100609.34
2022-12-08T09:04:26.047Z,100616.00
2022-12-08T09:06:53.830Z,100615.63
2022-12-08T09:09:21.837Z,100610.09
2022-12-08T09:11:49.447Z,100609.66
2022-12-08T09:14:17.148Z,100610.59
2022-12-08T09:16:45.093Z,100616.37
2022-12-08T09:19:12.860Z,100606.47
2022-12-08T09:21:40.797Z,100612.38
2022-12-08T09:24:15.554Z,100611.88
2022-12-08T09:26:44.436Z,100610.41
2022-12-08T09:29:14.653Z,100603.59
2022-12-08T09:31:42.599Z,100601.62
2022-12-08T09:34:12.326Z,100591.59
2022-12-08T09:36:40.633Z,100592.38
2022-12-08T09:39:08.814Z,100582.09
2022-12-08T09:41:48.184Z,100584.00
2022-12-08T09:44:34.720Z,100576.44
2022-12-08T09:47:05.485Z,100567.25
2022-12-08T09:49:58.151Z,100574.16
2022-12-08T09:52:31.463Z,100568.31
2022-12-08T09:55:04.522Z,100564.62
2022-12-08T09:57:32.152Z,100569.06
2022-12-08T10:00:04.493Z,100566.53
2022-12-08T10:02:32.932Z,100559.91
2022-12-08T10:05:01.039Z,100556.47
2022-12-08T10:08:08.391Z,100554.72
2022-12-08T10:10:57.974Z,100551.38
2022-12-08T10:13:36.762Z,100544.38
2022-12-08T10:16:39.489Z,100542.81
2022-12-08T10:19:21.401Z,100539.47
2022-12-08T10:21:50.643Z,100532.22
2022-12-08T10:24:41.219Z,100524.47
2022-12-08T10:27:12.595Z,100516.78
2022-12-08T10:29:41.210Z,100510.50
2022-12-08T10:32:17.575Z,100499.41
2022-12-08T10:35:08.886Z,100490.75
2022-12-08T10:37:37.008Z,100490.72
2022-12-08T10:40:10.591Z,100494.75
2022-12-08T10:42:41.959Z,100492.69
2022-12-08T10:45:17.694Z,100482.62
2022-12-08T10:48:06.556Z,100488.22
2022-12-08T10:50:35.685Z,100470.94
2022-12-08T10:53:09.501Z,100467.56
2022-12-08T10:56:09.406Z,100462.75
2022-12-08T10:58:42.680Z,100461.38
2022-12-08T11:01:18.378Z,100456.66
2022-12-08T11:03:46.368Z,100444.34
2022-12-08T11:06:20.271Z,100440.97
2022-12-08T11:09:23.142Z,100433.31
2022-12-08T11:12:06.688Z,100430.94
2022-12-08T11:14:43.573Z,100432.75
2022-12-08T11:17:33.367Z,100435.59
2022-12-08T11:20:10.454Z,100436.50
2022-12-08T11:22:43.477Z,100435.16
2022-12-08T11:25:24.838Z,100427.59
2022-12-08T11:27:56.433Z,100429.50
2022-12-08T11:30:38.958Z,100426.50
2022-12-08T11:33:22.409Z,100421.97
2022-12-08T11:35:55.629Z,100423.56
2022-12-08T11:38:25.184Z,100421.09
2022-12-08T11:41:08.385Z,100414.78
2022-12-08T11:43:46.798Z,100406.47
2022-12-08T11:46:26.393Z,100406.25
2022-12-08T11:49:06.710Z,100402.31
2022-12-08T11:51:39.774Z,100395.56
2022-12-08T11:54:26.244Z,100394.00
2022-12-08T11:57:03.103Z,100391.31
2022-12-08T11:59:41.901Z,100389.16
2022-12-08T12:02:19.727Z,100390.06
2022-12-08T12:04:50.799Z,100376.91
2022-12-08T12:07:39.450Z,100376.81
2022-12-08T12:10:21.082Z,100372.06
2022-12-08T12:13:07.181Z,100375.31
2022-12-08T12:15:47.191Z,100370.69
2022-12-08T12:18:27.241Z,100357.59
2022-12-08T12:21:10.471Z,100354.09
2022-12-08T12:23:54.462Z,100352.59
2022-12-08T12:26:25.937Z,100343.62
2022-12-08T12:29:00.282Z,100342.41
2022-12-08T12:31:41.639Z,100333.88
2022-12-08T12:34:21.138Z,100310.28
2022-12-08T12:37:10.276Z,100306.78
2022-12-08T12:39:53.379Z,100291.16
2022-12-08T12:42:36.665Z,100294.22
2022-12-08T12:45:22.098Z,100285.59
2022-12-08T12:47:56.337Z,100281.66
2022-12-08T12:50:33.896Z,100281.84
2022-12-08T12:53:20.796Z,100278.06
2022-12-08T12:55:55.542Z,100283.09
2022-12-08T12:58:32.326Z,100279.84
2022-12-08T13:01:15.088Z,100289.59
2022-12-08T13:03:51.757Z,100283.22
2022-12-08T13:06:32.425Z,100288.37
2022-12-08T13:09:00.614Z,100279.50
2022-12-08T13:11:28.353Z,100283.63
2022-12-08T13:13:56.934Z,100287.91
2022-12-08T13:16:27.815Z,100285.91
2022-12-08T13:19:03.551Z,100284.34
2022-12-08T13:21:36.970Z,100286.91
2022-12-08T13:24:10.659Z,100278.94
2022-12-08T13:27:02.131Z,100280.03
2022-12-08T13:29:30.685Z,100286.44
2022-12-08T13:32:01.463Z,100282.28
2022-12-08T13:34:38.061Z,100273.88
2022-12-08T13:37:18.833Z,100280.16
2022-12-08T13:39:58.434Z,100289.88
2022-12-08T13:42:44.969Z,100294.37
2022-12-08T13:45:33.560Z,100298.78
2022-12-08T13:48:23.384Z,100298.06
2022-12-08T13:57:26.816Z,100312.06
2022-12-08T13:59:59.779Z,100319.22
2022-12-08T14:02:35.176Z,100315.63
2022-12-08T14:05:23.475Z,100317.88
2022-12-08T14:07:55.423Z,100315.00
2022-12-08T14:10:29.221Z,100322.16
2022-12-08T14:13:03.553Z,100310.00
2022-12-08T14:15:38.094Z,100312.03
2022-12-08T14:18:21.612Z,100302.09
2022-12-08T14:21:21.087Z,100304.38
2022-12-08T14:23:48.951Z,100306.84
2022-12-08T14:26:18.005Z,100304.06
2022-12-08T14:28:45.612Z,100300.00
2022-12-08T14:31:14.573Z,100288.66
2022-12-08T14:33:43.065Z,100284.72
2022-12-08T14:36:20.983Z,100289.53
2022-12-08T14:38:52.635Z,100293.69
2022-12-08T14:41:25.250Z,100290.91
2022-12-08T14:44:01.404Z,100289.44
2022-12-08T14:46:29.325Z,100288.78
2022-12-08T14:48:58.318Z,100291.59
2022-12-08T14:51:31.081Z,100286.91
2022-12-08T14:54:02.743Z,100280.97
2022-12-08T14:56:36.368Z,100273.88
2022-12-08T14:59:06.805Z,100280.06
2022-12-08T15:01:35.010Z,100280.97
2022-12-08T15:04:18.227Z,100295.56
2022-12-08T15:07:05.781Z,100291.66
2022-12-08T15:09:43.253Z,100284.00
2022-12-08T15:12:14.074Z,100278.28
2022-12-08T15:15:14.568Z,100281.66
2022-12-08T15:17:44.237Z,100275.69
2022-12-08T15:20:35.616Z,100263.00
2022-12-08T15:23:04.635Z,100269.84
2022-12-08T15:25:32.472Z,100267.13
2022-12-08T15:28:02.625Z,100266.38
2022-12-08T15:30:31.260Z,100259.53
2022-12-08T15:32:59.012Z,100253.56
2022-12-08T15:35:26.543Z,100249.63
2022-12-08T15:37:54.483Z,100228.97
2022-12-08T15:40:27.234Z,100224.94
2022-12-08T15:42:55.179Z,100225.62
2022-12-08T15:45:31.429Z,100217.75
2022-12-08T15:47:59.321Z,100212.34
2022-12-08T15:50:27.328Z,100221.81
2022-12-08T15:52:54.937Z,100211.56
2022-12-08T15:55:28.274Z,100203.94
2022-12-08T16:00:53.862Z,100202.34
2022-12-08T16:04:13.082Z,100199.78
2022-12-08T16:07:12.511Z,100204.16
2022-12-08T16:09:31.894Z,100206.09
2022-12-08T16:12:21.106Z,100211.34
2022-12-08T16:17:37.002Z,100196.81
2022-12-08T16:20:15.398Z,100191.00
2022-12-08T16:23:13.471Z,100185.38
2022-12-08T16:25:52.830Z,100185.94
2022-12-08T16:28:52.301Z,100173.56
2022-12-08T16:31:13.006Z,100182.47
2022-12-08T16:33:42.055Z,100187.31
2022-12-08T16:36:10.626Z,100180.06
2022-12-08T16:38:38.333Z,100186.34
2022-12-08T16:41:31.349Z,100180.19
2022-12-08T16:44:03.046Z,100181.00
2022-12-08T16:46:31.455Z,100179.81
2022-12-08T16:48:59.397Z,100182.16
2022-12-08T16:51:27.727Z,100187.03
2022-12-08T16:53:57.102Z,100193.03
2022-12-08T16:56:30.597Z,100183.72
2022-12-08T16:59:02.060Z,100190.03
2022-12-08T17:01:31.585Z,100183.50
2022-12-08T17:04:31.026Z,100183.03
2022-12-08T17:06:47.525Z,100189.56
2022-12-08T17:09:15.273Z,100185.78
2022-12-08T17:11:43.837Z,100187.31
2022-12-08T17:14:13.030Z,100183.53
2022-12-08T17:16:41.712Z,100188.09
2022-12-08T17:19:13.264Z,100186.69
2022-12-08T17:21:41.903Z,100191.59
2022-12-08T17:24:09.494Z,100182.78
2022-12-08T17:26:39.980Z,100178.06
2022-12-08T17:29:07.819Z,100180.09
2022-12-08T17:31:35.460Z,100178.19
2022-12-08T17:34:05.815Z,100178.19
2022-12-08T17:36:33.910Z,100177.97
2022-12-08T17:39:02.402Z,100175.50
2022-12-08T17:41:30.380Z,100178.44
2022-12-08T17:43:58.250Z,100186.47
2022-12-08T17:46:26.163Z,100177.41
2022-12-08T17:48:54.148Z,100177.53
2022-12-08T17:51:22.194Z,100184.91
2022-12-08T17:53:49.986Z,100179.63
2022-12-08T17:56:21.623Z,100184.47
2022-12-08T17:58:54.403Z,100175.84
2022-12-08T18:01:24.070Z,100186.72
2022-12-08T18:03:52.205Z,100177.75
2022-12-08T18:06:20.578Z,100173.25
2022-12-08T18:08:48.440Z,100175.06
2022-12-08T18:11:19.174Z,100173.84
2022-12-08T18:13:48.380Z,100176.31
2022-12-08T18:16:19.213Z,100171.69
2022-12-08T18:18:47.700Z,100178.44
2022-12-08T18:21:23.018Z,100178.78
2022-12-08T18:23:51.856Z,100173.84
2022-12-08T18:26:20.715Z,100173.97
2022-12-08T18:28:48.476Z,100182.38
2022-12-08T18:31:19.610Z,100177.22
2022-12-08T18:33:48.456Z,100172.28
2022-12-08T18:36:20.234Z,100169.37
2022-12-08T18:38:48.176Z,100172.59
2022-12-08T18:41:20.042Z,100170.38
2022-12-08T18:43:48.077Z,100176.09
2022-12-08T18:46:17.371Z,100172.41
2022-12-08T18:48:48.931Z,100176.31
2022-12-08T18:51:19.051Z,100176.22
2022-12-08T18:53:47.612Z,100183.19
2022-12-08T18:56:35.224Z,100180.03
2022-12-08T18:59:06.583Z,100181.38
2022-12-08T19:01:36.323Z,100176.44
2022-12-08T19:06:56.408Z,100176.44
2022-12-08T19:09:26.973Z,100180.22
2022-12-08T19:11:55.497Z,100183.03
2022-12-08T19:14:28.147Z,100179.34
2022-12-08T19:16:57.824Z,100180.91
2022-12-08T19:19:27.475Z,100184.97
2022-12-08T19:21:56.002Z,100178.00
2022-12-08T19:24:25.015Z,100180.47
2022-12-08T19:26:53.336Z,100180.78
2022-12-08T19:29:21.262Z,100179.47
2022-12-08T19:31:49.628Z,100185.84
2022-12-08T19:34:17.897Z,100184.84
2022-12-08T19:36:45.948Z,100179.34
2022-12-08T19:39:37.994Z,100182.16
2022-12-08T19:42:32.348Z,100176.09
2022-12-08T19:45:14.613Z,100180.16
2022-12-08T19:47:43.004Z,100167.69
2022-12-08T19:50:32.545Z,100168.56
2022-12-08T19:53:01.135Z,100176.28
2022-12-08T19:55:29.496Z,100176.53
2022-12-08T19:57:57.361Z,100182.03
2022-12-08T20:00:25.692Z,100174.41
2022-12-08T20:02:54.576Z,100173.63
2022-12-08T20:05:22.531Z,100172.69
2022-12-08T20:07:50.852Z,100172.13
2022-12-08T20:10:22.151Z,100167.72
2022-12-08T20:12:50.031Z,100171.44
2022-12-08T20:15:17.831Z,100162.91
2022-12-08T20:17:46.539Z,100167.28
2022-12-08T20:20:15.070Z,100172.69
2022-12-08T20:22:42.988Z,100167.28
2022-12-08T20:25:13.059Z,100175.25
2022-12-08T20:27:41.627Z,100170.31
2022-12-08T20:30:16.449Z,100177.66
2022-12-08T20:32:45.701Z,100172.37
2022-12-08T20:35:14.959Z,100161.34
2022-12-08T20:37:43.078Z,100173.16
2022-12-08T20:40:11.618Z,100172.91
2022-12-08T20:42:39.437Z,100172.03
2022-12-08T20:45:09.196Z,100172.50
2022-12-08T20:47:37.820Z,100170.66
2022-12-08T20:50:07.131Z,100167.19
2022-12-08T20:52:35.177Z,100174.03
2022-12-08T20:55:04.504Z,100167.53
2022-12-08T20:57:33.503Z,100160.19
2022-12-08T21:00:02.527Z,100174.94
2022-12-08T21:02:30.743Z,100165.25
2022-12-08T21:04:58.431Z,100167.16
2022-12-08T21:07:26.067Z,100164.94
2022-12-08T21:09:54.777Z,100157.47
2022-12-08T21:12:22.486Z,100159.03
2022-12-08T21:14:50.253Z,100162.25
2022-12-08T21:17:18.289Z,100160.03
2022-12-08T21:19:46.187Z,100179.87
2022-12-08T21:22:14.644Z,100172.75
2022-12-08T21:24:42.654Z,100172.19
2022-12-08T21:27:10.460Z,100176.53
2022-12-08T21:29:39.004Z,100176.19
2022-12-08T21:32:07.102Z,100168.34
2022-12-08T21:34:35.521Z,100171.88
2022-12-08T21:37:03.140Z,100174.28
2022-12-08T21:39:31.132Z,100181.75
2022-12-08T21:42:27.938Z,100180.16
2022-12-08T21:45:00.293Z,100169.34
2022-12-08T21:47:28.074Z,100168.97
2022-12-08T21:49:55.808Z,100177.91
2022-12-08T21:52:23.636Z,100178.22
2022-12-08T21:54:51.464Z,100174.19
2022-12-08T21:57:19.315Z,100164.78
2022-12-08T21:59:47.483Z,100167.97
2022-12-08T22:02:20.780Z,100172.63
2022-12-08T22:04:50.667Z,100179.53
2022-12-08T22:07:19.638Z,100173.88
2022-12-08T22:09:47.515Z,100170.84
2022-12-08T22:12:16.831Z,100168.12
2022-12-08T22:14:44.530Z,100167.97
2022-12-08T22:17:12.376Z,100178.47
2022-12-08T22:19:40.540Z,100169.16
2022-12-08T22:22:08.326Z,100165.63
2022-12-08T22:24:35.945Z,100167.81
2022-12-08T22:27:04.053Z,100164.06
2022-12-08T22:29:31.949Z,100175.69
2022-12-08T22:31:59.501Z,100175.47
2022-12-08T22:34:27.560Z,100176.06
2022-12-08T22:36:55.301Z,100171.84
2022-12-08T22:39:22.928Z,100170.44
2022-12-08T22:41:50.991Z,100175.41
2022-12-08T22:44:23.711Z,100174.50
2022-12-08T22:46:51.789Z,100170.62
2022-12-08T22:49:19.475Z,100173.22
2022-12-08T22:51:46.959Z,100173.69
2022-12-08T22:54:14.757Z,100172.78
2022-12-08T22:56:42.343Z,100162.56
2022-12-08T22:59:10.233Z,100170.19
2022-12-08T23:01:38.055Z,100166.97
2022-12-08T23:04:06.012Z,100167.66
2022-12-08T23:06:33.890Z,100167.34
2022-12-08T23:09:02.630Z,100171.53
2022-12-08T23:11:31.286Z,100174.50
2022-12-08T23:14:00.354Z,100173.97
2022-12-08T23:16:29.142Z,100174.06
2022-12-08T23:18:57.012Z,100172.03
2022-12-08T23:21:24.545Z,100171.41
2022-12-08T23:23:52.490Z,100173.94
2022-12-08T23:26:25.210Z,100168.91
2022-12-08T23:28:54.058Z,100171.50
2022-12-08T23:31:22.468Z,100168.88
2022-12-08T23:33:50.814Z,100159.66
2022-12-08T23:36:20.447Z,100159.13
2022-12-08T23:38:48.970Z,100158.44
2022-12-08T23:41:17.238Z,100155.56
2022-12-08T23:43:47.002Z,100161.69
2022-12-08T23:46:16.958Z,100167.41
2022-12-08T23:48:46.012Z,100164.22
2022-12-08T23:51:14.053Z,100170.81
2022-12-08T23:53:42.074Z,100162.59
2022-12-08T23:56:12.701Z,100158.22
2022-12-08T23:58:41.757Z,100152.19
